Langholm, United Kingdom
Current Conditions -  °F | °C
As of 8:50 AM on Wednesday 26 Nov 2014 (Local Time) from EGNC Reporting Station
Light Rain Light Rain  
Wind Chill: 36°   Ceiling: 2400
Heat Index: 41°   Visibility: 4mi
Dew Point: 41°   Wind: 7mph
Humidity: 100%   Direction: 50°NE
Pressure: 30"   Gusts: NA
Location:  55.15°N, 3°W
Report Text: EGNC 260850Z 05006KT 7000 -RA FEW009 SCT015 BKN024 05/05 Q1016
Loading
Personal Weather Stations






























Interactive Weather Map New forecast layout! Learn more

10-Day Weather Forecast

Advertisements
Track Severe Weather on mobile